createdAt,value
2023-03-08T00:01:39.689Z,67.33
2023-03-08T00:11:42.821Z,67.65
2023-03-08T00:21:45.940Z,67.80
2023-03-08T00:31:50.825Z,67.94
2023-03-08T00:41:55.634Z,67.92
2023-03-08T00:51:58.728Z,67.81
2023-03-08T01:02:01.998Z,67.47
2023-03-08T01:12:05.637Z,67.27
2023-03-08T01:22:08.733Z,67.08
2023-03-08T01:32:12.073Z,66.96
2023-03-08T01:42:15.244Z,66.56
2023-03-08T01:52:27.107Z,66.80
2023-03-08T02:02:39.275Z,66.99
2023-03-08T02:12:43.224Z,67.06
2023-03-08T02:22:53.395Z,67.09
2023-03-08T02:32:59.010Z,67.19
2023-03-08T02:43:05.017Z,66.62
2023-03-08T02:53:08.342Z,65.25
2023-03-08T03:03:11.701Z,64.17
2023-03-08T03:13:14.909Z,63.84
2023-03-08T03:23:18.456Z,63.64
2023-03-08T03:33:26.925Z,63.43
2023-03-08T03:43:31.841Z,63.36
2023-03-08T03:53:36.655Z,63.78
2023-03-08T04:03:41.536Z,64.80
2023-03-08T04:13:46.320Z,64.87
2023-03-08T04:23:50.652Z,65.25
2023-03-08T04:33:55.775Z,65.50
2023-03-08T04:43:58.995Z,65.66
2023-03-08T04:54:16.864Z,66.51
2023-03-08T05:04:24.657Z,66.96
2023-03-08T05:14:28.593Z,66.45
2023-03-08T05:24:32.266Z,65.87
2023-03-08T05:34:37.947Z,65.55
2023-03-08T05:44:42.489Z,65.48
2023-03-08T05:54:47.970Z,65.80
2023-03-08T06:04:54.410Z,65.34
2023-03-08T06:14:59.818Z,65.00
2023-03-08T06:25:04.930Z,64.81
2023-03-08T06:35:11.242Z,64.48
2023-03-08T06:45:18.890Z,64.22
2023-03-08T06:55:22.355Z,63.28
2023-03-08T07:05:26.427Z,62.06
2023-03-08T07:15:29.865Z,61.37
2023-03-08T07:25:32.981Z,60.02
2023-03-08T07:35:39.886Z,59.77
2023-03-08T07:45:43.315Z,59.48
2023-03-08T07:55:46.457Z,59.23
2023-03-08T08:05:49.629Z,58.11
2023-03-08T08:16:01.040Z,56.01
2023-03-08T08:26:12.417Z,55.05
2023-03-08T08:36:20.706Z,54.64
2023-03-08T08:46:24.069Z,54.25
2023-03-08T08:56:29.016Z,54.35
2023-03-08T09:06:34.770Z,53.94
2023-03-08T09:16:39.397Z,53.30
2023-03-08T09:26:42.743Z,52.08
2023-03-08T09:36:45.925Z,51.81
2023-03-08T09:47:17.360Z,51.25
2023-03-08T09:57:29.119Z,50.45
2023-03-08T10:07:50.916Z,49.44
2023-03-08T10:18:05.194Z,48.96
2023-03-08T10:28:16.218Z,49.58
2023-03-08T10:38:19.553Z,47.59
2023-03-08T10:48:22.907Z,47.42
2023-03-08T10:58:40.395Z,46.52
2023-03-08T11:08:56.123Z,45.83
2023-03-08T11:19:20.430Z,45.48
2023-03-08T11:29:41.827Z,45.23
2023-03-08T11:39:59.250Z,45.63
2023-03-08T11:50:24.547Z,44.21
2023-03-08T12:00:43.111Z,44.31
2023-03-08T12:10:56.894Z,44.18
2023-03-08T12:21:32.784Z,43.49
2023-03-08T12:31:44.752Z,42.22
2023-03-08T12:42:01.612Z,42.12
2023-03-08T12:52:08.309Z,41.76
2023-03-08T13:02:27.281Z,42.17
2023-03-08T13:12:43.316Z,40.86
2023-03-08T13:23:18.837Z,40.97
2023-03-08T13:33:24.950Z,42.02
2023-03-08T13:43:32.377Z,41.87
2023-03-08T13:53:38.215Z,42.43
2023-03-08T14:03:43.316Z,42.53
2023-03-08T14:13:50.924Z,42.27
2023-03-08T14:24:02.495Z,42.57
2023-03-08T14:34:19.277Z,43.45
2023-03-08T14:44:28.152Z,44.10
2023-03-08T14:54:36.671Z,44.31
2023-03-08T15:04:40.778Z,44.46
2023-03-08T15:14:45.000Z,45.08
2023-03-08T15:24:48.348Z,45.67
2023-03-08T15:34:51.399Z,47.10
2023-03-08T15:44:55.638Z,49.46
2023-03-08T15:54:58.872Z,50.83
2023-03-08T16:05:03.227Z,51.48
2023-03-08T16:15:07.690Z,53.65
2023-03-08T16:25:10.846Z,56.28
2023-03-08T16:35:13.959Z,57.60
2023-03-08T16:45:17.331Z,58.64
2023-03-08T16:55:26.376Z,59.08
2023-03-08T17:05:29.791Z,59.61
2023-03-08T17:15:43.627Z,59.79
2023-03-08T17:25:47.080Z,59.94
2023-03-08T17:35:53.960Z,59.72
2023-03-08T17:46:04.888Z,59.56
2023-03-08T17:56:10.126Z,59.52
2023-03-08T18:06:33.786Z,59.65
2023-03-08T18:16:38.652Z,60.27
2023-03-08T18:26:41.707Z,60.47
2023-03-08T18:36:44.828Z,60.69
2023-03-08T18:46:48.013Z,60.91
2023-03-08T18:56:53.845Z,61.03
2023-03-08T19:06:56.934Z,61.67
2023-03-08T19:17:01.027Z,62.26
2023-03-08T19:27:06.342Z,62.57
2023-03-08T19:37:13.368Z,62.86
2023-03-08T19:47:20.220Z,63.58
2023-03-08T19:57:23.408Z,64.63
2023-03-08T20:07:26.589Z,64.97
2023-03-08T20:17:32.270Z,65.07
2023-03-08T20:27:38.030Z,65.78
2023-03-08T20:37:42.048Z,66.21
2023-03-08T20:47:47.697Z,66.86
2023-03-08T20:57:52.036Z,67.68
2023-03-08T21:07:55.499Z,67.71
2023-03-08T21:17:58.971Z,67.84
2023-03-08T21:28:02.104Z,67.71
2023-03-08T21:38:06.731Z,67.62
2023-03-08T21:48:10.295Z,67.56
2023-03-08T21:58:16.486Z,68.50
2023-03-08T22:08:19.559Z,69.59
2023-03-08T22:18:23.570Z,70.50
2023-03-08T22:28:26.662Z,71.10
2023-03-08T22:38:30.784Z,71.54
2023-03-08T22:48:36.533Z,71.77
2023-03-08T22:58:39.692Z,71.68
2023-03-08T23:08:43.054Z,71.99
2023-03-08T23:18:50.334Z,72.10
2023-03-08T23:28:56.922Z,72.98
2023-03-08T23:39:04.472Z,73.28
2023-03-08T23:49:09.610Z,73.32
2023-03-08T23:59:20.218Z,73.22
